sensor_id;sensor_type;location;lat;lon;timestamp;P1;durP1;ratioP1;P2;durP2;ratioP2
45848;SDS011;31567;54.600;9.842;2022-12-05T00:01:52;10.13;;;7.90;;
45848;SDS011;31567;54.600;9.842;2022-12-05T00:05:31;11.82;;;6.75;;
45848;SDS011;31567;54.600;9.842;2022-12-05T00:09:11;10.23;;;7.50;;
45848;SDS011;31567;54.600;9.842;2022-12-05T00:12:51;8.13;;;6.63;;
45848;SDS011;31567;54.600;9.842;2022-12-05T00:16:31;10.27;;;6.25;;
45848;SDS011;31567;54.600;9.842;2022-12-05T00:20:12;7.85;;;5.85;;
45848;SDS011;31567;54.600;9.842;2022-12-05T00:23:52;8.82;;;6.35;;
45848;SDS011;31567;54.600;9.842;2022-12-05T00:27:33;7.35;;;6.35;;
45848;SDS011;31567;54.600;9.842;2022-12-05T00:31:14;8.80;;;5.65;;
45848;SDS011;31567;54.600;9.842;2022-12-05T00:34:57;7.53;;;5.90;;
45848;SDS011;31567;54.600;9.842;2022-12-05T00:38:36;9.00;;;5.70;;
45848;SDS011;31567;54.600;9.842;2022-12-05T00:42:16;7.75;;;5.93;;
45848;SDS011;31567;54.600;9.842;2022-12-05T00:45:59;6.82;;;4.55;;
45848;SDS011;31567;54.600;9.842;2022-12-05T00:49:42;8.03;;;5.47;;
45848;SDS011;31567;54.600;9.842;2022-12-05T00:53:21;6.45;;;5.78;;
45848;SDS011;31567;54.600;9.842;2022-12-05T00:57:01;7.38;;;4.85;;
45848;SDS011;31567;54.600;9.842;2022-12-05T01:00:40;8.15;;;5.18;;
45848;SDS011;31567;54.600;9.842;2022-12-05T01:04:24;8.60;;;4.78;;
45848;SDS011;31567;54.600;9.842;2022-12-05T01:08:03;5.60;;;4.95;;
45848;SDS011;31567;54.600;9.842;2022-12-05T01:11:43;7.57;;;5.55;;
45848;SDS011;31567;54.600;9.842;2022-12-05T01:15:23;7.00;;;5.40;;
45848;SDS011;31567;54.600;9.842;2022-12-05T01:19:08;8.45;;;4.70;;
45848;SDS011;31567;54.600;9.842;2022-12-05T01:22:52;8.02;;;5.18;;
45848;SDS011;31567;54.600;9.842;2022-12-05T01:26:32;6.18;;;5.18;;
45848;SDS011;31567;54.600;9.842;2022-12-05T01:30:11;8.52;;;5.18;;
45848;SDS011;31567;54.600;9.842;2022-12-05T01:33:52;6.50;;;4.93;;
45848;SDS011;31567;54.600;9.842;2022-12-05T01:37:34;7.88;;;4.82;;
45848;SDS011;31567;54.600;9.842;2022-12-05T01:41:15;5.90;;;4.70;;
45848;SDS011;31567;54.600;9.842;2022-12-05T01:44:58;6.28;;;4.97;;
45848;SDS011;31567;54.600;9.842;2022-12-05T01:48:40;8.20;;;5.85;;
45848;SDS011;31567;54.600;9.842;2022-12-05T01:52:21;7.25;;;5.07;;
45848;SDS011;31567;54.600;9.842;2022-12-05T01:56:03;7.43;;;5.20;;
45848;SDS011;31567;54.600;9.842;2022-12-05T01:59:44;8.82;;;5.75;;
45848;SDS011;31567;54.600;9.842;2022-12-05T02:03:28;7.68;;;5.60;;
45848;SDS011;31567;54.600;9.842;2022-12-05T02:07:08;8.30;;;5.82;;
45848;SDS011;31567;54.600;9.842;2022-12-05T02:10:51;7.28;;;5.45;;
45848;SDS011;31567;54.600;9.842;2022-12-05T02:30:30;7.63;;;6.05;;
45848;SDS011;31567;54.600;9.842;2022-12-05T02:34:34;9.35;;;6.18;;
45848;SDS011;31567;54.600;9.842;2022-12-05T02:45:43;7.45;;;6.05;;
45848;SDS011;31567;54.600;9.842;2022-12-05T02:49:28;9.60;;;6.22;;
45848;SDS011;31567;54.600;9.842;2022-12-05T02:53:10;9.20;;;6.00;;
45848;SDS011;31567;54.600;9.842;2022-12-05T02:56:52;9.50;;;6.05;;
45848;SDS011;31567;54.600;9.842;2022-12-05T03:00:34;7.88;;;6.43;;
45848;SDS011;31567;54.600;9.842;2022-12-05T03:04:18;9.30;;;5.80;;
45848;SDS011;31567;54.600;9.842;2022-12-05T03:07:59;9.98;;;6.38;;
45848;SDS011;31567;54.600;9.842;2022-12-05T03:11:53;8.75;;;6.50;;
45848;SDS011;31567;54.600;9.842;2022-12-05T03:15:38;10.98;;;7.25;;
45848;SDS011;31567;54.600;9.842;2022-12-05T03:19:24;10.85;;;6.90;;
45848;SDS011;31567;54.600;9.842;2022-12-05T03:23:11;8.23;;;6.45;;
45848;SDS011;31567;54.600;9.842;2022-12-05T03:30:55;9.13;;;6.32;;
45848;SDS011;31567;54.600;9.842;2022-12-05T03:39:02;9.52;;;7.57;;
45848;SDS011;31567;54.600;9.842;2022-12-05T03:43:07;12.63;;;8.00;;
45848;SDS011;31567;54.600;9.842;2022-12-05T03:50:38;10.27;;;7.63;;
45848;SDS011;31567;54.600;9.842;2022-12-05T03:54:23;11.57;;;7.38;;
45848;SDS011;31567;54.600;9.842;2022-12-05T03:58:07;12.73;;;8.55;;
45848;SDS011;31567;54.600;9.842;2022-12-05T04:01:50;10.55;;;7.63;;
45848;SDS011;31567;54.600;9.842;2022-12-05T04:05:38;12.90;;;8.00;;
45848;SDS011;31567;54.600;9.842;2022-12-05T04:09:39;12.90;;;8.40;;
45848;SDS011;31567;54.600;9.842;2022-12-05T04:13:37;11.10;;;8.15;;
45848;SDS011;31567;54.600;9.842;2022-12-05T04:21:24;13.05;;;8.93;;
45848;SDS011;31567;54.600;9.842;2022-12-05T04:25:17;11.88;;;8.60;;
45848;SDS011;31567;54.600;9.842;2022-12-05T04:29:22;14.20;;;9.00;;
45848;SDS011;31567;54.600;9.842;2022-12-05T04:33:09;11.10;;;8.65;;
45848;SDS011;31567;54.600;9.842;2022-12-05T04:37:01;14.65;;;9.57;;
45848;SDS011;31567;54.600;9.842;2022-12-05T04:40:48;11.07;;;8.75;;
45848;SDS011;31567;54.600;9.842;2022-12-05T04:44:39;12.10;;;8.55;;
45848;SDS011;31567;54.600;9.842;2022-12-05T04:48:31;13.32;;;9.13;;
45848;SDS011;31567;54.600;9.842;2022-12-05T04:52:15;13.23;;;8.27;;
45848;SDS011;31567;54.600;9.842;2022-12-05T04:55:56;16.35;;;9.80;;
45848;SDS011;31567;54.600;9.842;2022-12-05T04:59:37;12.98;;;8.48;;
45848;SDS011;31567;54.600;9.842;2022-12-05T05:03:28;12.05;;;8.15;;
45848;SDS011;31567;54.600;9.842;2022-12-05T05:07:09;12.30;;;7.93;;
45848;SDS011;31567;54.600;9.842;2022-12-05T05:11:35;14.00;;;9.18;;
45848;SDS011;31567;54.600;9.842;2022-12-05T05:14:54;16.02;;;9.65;;
45848;SDS011;31567;54.600;9.842;2022-12-05T05:18:33;12.15;;;7.13;;
45848;SDS011;31567;54.600;9.842;2022-12-05T05:22:13;12.38;;;8.43;;
45848;SDS011;31567;54.600;9.842;2022-12-05T05:25:53;10.27;;;7.57;;
45848;SDS011;31567;54.600;9.842;2022-12-05T05:29:33;10.27;;;7.70;;
45848;SDS011;31567;54.600;9.842;2022-12-05T05:33:13;11.30;;;8.68;;
45848;SDS011;31567;54.600;9.842;2022-12-05T05:36:53;10.63;;;7.10;;
45848;SDS011;31567;54.600;9.842;2022-12-05T05:40:34;10.70;;;8.27;;
45848;SDS011;31567;54.600;9.842;2022-12-05T05:44:14;10.80;;;7.18;;
45848;SDS011;31567;54.600;9.842;2022-12-05T05:47:54;8.68;;;7.25;;
45848;SDS011;31567;54.600;9.842;2022-12-05T05:51:33;10.48;;;6.88;;
45848;SDS011;31567;54.600;9.842;2022-12-05T05:55:13;12.40;;;6.93;;
45848;SDS011;31567;54.600;9.842;2022-12-05T05:58:54;11.13;;;7.90;;
45848;SDS011;31567;54.600;9.842;2022-12-05T06:02:38;12.00;;;8.05;;
45848;SDS011;31567;54.600;9.842;2022-12-05T06:06:17;16.15;;;7.78;;
45848;SDS011;31567;54.600;9.842;2022-12-05T06:09:58;11.88;;;7.80;;
45848;SDS011;31567;54.600;9.842;2022-12-05T06:13:37;12.68;;;7.90;;
45848;SDS011;31567;54.600;9.842;2022-12-05T06:17:17;10.70;;;6.53;;
45848;SDS011;31567;54.600;9.842;2022-12-05T06:20:57;11.00;;;7.63;;
45848;SDS011;31567;54.600;9.842;2022-12-05T06:24:37;11.88;;;7.70;;
45848;SDS011;31567;54.600;9.842;2022-12-05T06:28:17;9.55;;;7.82;;
45848;SDS011;31567;54.600;9.842;2022-12-05T06:31:57;9.55;;;6.82;;
45848;SDS011;31567;54.600;9.842;2022-12-05T06:35:37;8.75;;;5.93;;
45848;SDS011;31567;54.600;9.842;2022-12-05T06:39:17;8.18;;;6.63;;
45848;SDS011;31567;54.600;9.842;2022-12-05T06:42:56;8.27;;;6.20;;
45848;SDS011;31567;54.600;9.842;2022-12-05T06:46:36;10.80;;;6.57;;
45848;SDS011;31567;54.600;9.842;2022-12-05T06:50:15;9.68;;;6.57;;
45848;SDS011;31567;54.600;9.842;2022-12-05T06:53:55;9.80;;;6.40;;
45848;SDS011;31567;54.600;9.842;2022-12-05T06:57:35;9.50;;;6.78;;
45848;SDS011;31567;54.600;9.842;2022-12-05T07:01:16;10.00;;;5.90;;
45848;SDS011;31567;54.600;9.842;2022-12-05T07:05:15;7.88;;;5.60;;
45848;SDS011;31567;54.600;9.842;2022-12-05T07:08:55;8.70;;;6.05;;
45848;SDS011;31567;54.600;9.842;2022-12-05T07:12:35;9.10;;;5.88;;
45848;SDS011;31567;54.600;9.842;2022-12-05T07:16:14;11.88;;;6.68;;
45848;SDS011;31567;54.600;9.842;2022-12-05T07:19:54;7.18;;;5.95;;
45848;SDS011;31567;54.600;9.842;2022-12-05T07:23:33;8.77;;;5.05;;
45848;SDS011;31567;54.600;9.842;2022-12-05T07:27:13;9.13;;;5.90;;
45848;SDS011;31567;54.600;9.842;2022-12-05T07:34:40;11.60;;;4.72;;
45848;SDS011;31567;54.600;9.842;2022-12-05T07:38:20;6.80;;;5.43;;
45848;SDS011;31567;54.600;9.842;2022-12-05T07:41:59;8.20;;;5.47;;
45848;SDS011;31567;54.600;9.842;2022-12-05T07:45:39;9.43;;;4.93;;
45848;SDS011;31567;54.600;9.842;2022-12-05T07:49:18;4.88;;;3.80;;
45848;SDS011;31567;54.600;9.842;2022-12-05T07:52:58;7.00;;;4.38;;
45848;SDS011;31567;54.600;9.842;2022-12-05T07:56:37;6.72;;;4.65;;
45848;SDS011;31567;54.600;9.842;2022-12-05T08:00:17;6.03;;;4.00;;
45848;SDS011;31567;54.600;9.842;2022-12-05T08:03:57;6.80;;;4.40;;
45848;SDS011;31567;54.600;9.842;2022-12-05T08:07:37;7.97;;;4.07;;
45848;SDS011;31567;54.600;9.842;2022-12-05T08:11:18;6.45;;;4.38;;
45848;SDS011;31567;54.600;9.842;2022-12-05T08:14:58;6.93;;;4.57;;
45848;SDS011;31567;54.600;9.842;2022-12-05T08:18:38;4.43;;;3.90;;
45848;SDS011;31567;54.600;9.842;2022-12-05T08:22:17;6.75;;;4.68;;
45848;SDS011;31567;54.600;9.842;2022-12-05T08:26:04;6.40;;;4.18;;
45848;SDS011;31567;54.600;9.842;2022-12-05T08:29:46;7.75;;;4.45;;
45848;SDS011;31567;54.600;9.842;2022-12-05T08:33:26;6.05;;;3.90;;
45848;SDS011;31567;54.600;9.842;2022-12-05T08:37:06;7.28;;;4.50;;
45848;SDS011;31567;54.600;9.842;2022-12-05T08:40:45;6.30;;;4.00;;
45848;SDS011;31567;54.600;9.842;2022-12-05T08:44:25;5.50;;;4.60;;
45848;SDS011;31567;54.600;9.842;2022-12-05T08:48:05;8.40;;;4.47;;
45848;SDS011;31567;54.600;9.842;2022-12-05T08:51:44;7.13;;;3.47;;
45848;SDS011;31567;54.600;9.842;2022-12-05T08:55:24;6.85;;;4.88;;
45848;SDS011;31567;54.600;9.842;2022-12-05T08:59:04;5.97;;;4.15;;
45848;SDS011;31567;54.600;9.842;2022-12-05T09:02:43;8.10;;;5.05;;
45848;SDS011;31567;54.600;9.842;2022-12-05T09:06:27;9.40;;;4.82;;
45848;SDS011;31567;54.600;9.842;2022-12-05T09:10:07;6.30;;;4.30;;
45848;SDS011;31567;54.600;9.842;2022-12-05T09:13:48;7.70;;;4.72;;
45848;SDS011;31567;54.600;9.842;2022-12-05T09:17:28;8.88;;;4.88;;
45848;SDS011;31567;54.600;9.842;2022-12-05T09:21:12;8.35;;;5.00;;
45848;SDS011;31567;54.600;9.842;2022-12-05T09:24:56;6.43;;;4.95;;
45848;SDS011;31567;54.600;9.842;2022-12-05T09:28:36;6.43;;;3.97;;
45848;SDS011;31567;54.600;9.842;2022-12-05T09:32:16;9.10;;;5.07;;
45848;SDS011;31567;54.600;9.842;2022-12-05T09:35:56;6.20;;;4.85;;
45848;SDS011;31567;54.600;9.842;2022-12-05T09:39:36;5.60;;;4.25;;
45848;SDS011;31567;54.600;9.842;2022-12-05T09:43:36;6.25;;;3.92;;
45848;SDS011;31567;54.600;9.842;2022-12-05T09:51:23;7.03;;;4.25;;
45848;SDS011;31567;54.600;9.842;2022-12-05T09:55:08;6.55;;;4.00;;
45848;SDS011;31567;54.600;9.842;2022-12-05T09:58:54;5.18;;;3.63;;
45848;SDS011;31567;54.600;9.842;2022-12-05T10:02:56;6.18;;;4.22;;
45848;SDS011;31567;54.600;9.842;2022-12-05T10:11:10;5.47;;;4.20;;
45848;SDS011;31567;54.600;9.842;2022-12-05T10:15:12;6.22;;;4.00;;
45848;SDS011;31567;54.600;9.842;2022-12-05T10:18:59;7.47;;;4.60;;
45848;SDS011;31567;54.600;9.842;2022-12-05T10:22:43;9.43;;;4.28;;
45848;SDS011;31567;54.600;9.842;2022-12-05T10:26:36;5.03;;;3.55;;
45848;SDS011;31567;54.600;9.842;2022-12-05T10:30:23;6.30;;;5.18;;
45848;SDS011;31567;54.600;9.842;2022-12-05T10:38:02;7.32;;;3.75;;
45848;SDS011;31567;54.600;9.842;2022-12-05T10:41:42;6.13;;;3.83;;
45848;SDS011;31567;54.600;9.842;2022-12-05T10:45:22;6.10;;;3.67;;
45848;SDS011;31567;54.600;9.842;2022-12-05T10:49:07;8.48;;;4.43;;
45848;SDS011;31567;54.600;9.842;2022-12-05T10:56:40;4.75;;;3.50;;
45848;SDS011;31567;54.600;9.842;2022-12-05T11:00:23;6.80;;;3.90;;
45848;SDS011;31567;54.600;9.842;2022-12-05T11:04:25;6.60;;;4.30;;
45848;SDS011;31567;54.600;9.842;2022-12-05T11:08:16;5.85;;;4.00;;
45848;SDS011;31567;54.600;9.842;2022-12-05T11:15:59;6.95;;;4.05;;
45848;SDS011;31567;54.600;9.842;2022-12-05T11:19:39;7.20;;;4.32;;
45848;SDS011;31567;54.600;9.842;2022-12-05T11:38:53;8.10;;;4.13;;
45848;SDS011;31567;54.600;9.842;2022-12-05T11:42:39;9.68;;;4.35;;
45848;SDS011;31567;54.600;9.842;2022-12-05T11:51:05;8.85;;;4.10;;
45848;SDS011;31567;54.600;9.842;2022-12-05T11:55:13;7.18;;;4.03;;
45848;SDS011;31567;54.600;9.842;2022-12-05T11:59:03;10.32;;;4.45;;
45848;SDS011;31567;54.600;9.842;2022-12-05T12:03:17;7.80;;;4.40;;
45848;SDS011;31567;54.600;9.842;2022-12-05T12:15:04;12.73;;;4.88;;
45848;SDS011;31567;54.600;9.842;2022-12-05T12:23:20;10.05;;;4.28;;
45848;SDS011;31567;54.600;9.842;2022-12-05T12:40:26;8.63;;;4.70;;
45848;SDS011;31567;54.600;9.842;2022-12-05T12:51:50;7.38;;;3.05;;
45848;SDS011;31567;54.600;9.842;2022-12-05T12:55:47;5.50;;;3.20;;
45848;SDS011;31567;54.600;9.842;2022-12-05T13:03:24;7.35;;;3.78;;
45848;SDS011;31567;54.600;9.842;2022-12-05T13:07:12;6.97;;;3.38;;
45848;SDS011;31567;54.600;9.842;2022-12-05T13:10:57;5.93;;;3.05;;
45848;SDS011;31567;54.600;9.842;2022-12-05T13:14:41;8.85;;;4.05;;
45848;SDS011;31567;54.600;9.842;2022-12-05T13:18:31;9.80;;;3.88;;
45848;SDS011;31567;54.600;9.842;2022-12-05T13:22:11;9.35;;;3.25;;
45848;SDS011;31567;54.600;9.842;2022-12-05T13:25:51;7.53;;;3.25;;
45848;SDS011;31567;54.600;9.842;2022-12-05T13:29:34;11.48;;;4.15;;
45848;SDS011;31567;54.600;9.842;2022-12-05T13:33:33;6.45;;;3.15;;
45848;SDS011;31567;54.600;9.842;2022-12-05T13:37:28;7.78;;;3.35;;
45848;SDS011;31567;54.600;9.842;2022-12-05T13:41:37;6.05;;;2.95;;
45848;SDS011;31567;54.600;9.842;2022-12-05T13:45:37;7.35;;;3.40;;
45848;SDS011;31567;54.600;9.842;2022-12-05T13:49:28;8.60;;;3.40;;
45848;SDS011;31567;54.600;9.842;2022-12-05T13:57:02;7.15;;;3.50;;
45848;SDS011;31567;54.600;9.842;2022-12-05T14:00:43;11.48;;;3.65;;
45848;SDS011;31567;54.600;9.842;2022-12-05T14:04:39;5.78;;;2.60;;
45848;SDS011;31567;54.600;9.842;2022-12-05T14:15:49;10.13;;;3.75;;
45848;SDS011;31567;54.600;9.842;2022-12-05T14:19:34;9.73;;;4.53;;
45848;SDS011;31567;54.600;9.842;2022-12-05T14:35:31;11.25;;;4.68;;
45848;SDS011;31567;54.600;9.842;2022-12-05T14:39:41;13.07;;;5.70;;
45848;SDS011;31567;54.600;9.842;2022-12-05T14:43:26;12.63;;;5.55;;
45848;SDS011;31567;54.600;9.842;2022-12-05T14:47:16;11.68;;;5.18;;
45848;SDS011;31567;54.600;9.842;2022-12-05T14:54:39;11.43;;;5.53;;
45848;SDS011;31567;54.600;9.842;2022-12-05T14:58:20;11.45;;;4.80;;
45848;SDS011;31567;54.600;9.842;2022-12-05T15:02:15;10.43;;;5.07;;
45848;SDS011;31567;54.600;9.842;2022-12-05T15:06:16;13.00;;;5.22;;
45848;SDS011;31567;54.600;9.842;2022-12-05T15:09:57;12.95;;;5.38;;
45848;SDS011;31567;54.600;9.842;2022-12-05T15:13:44;11.60;;;5.47;;
45848;SDS011;31567;54.600;9.842;2022-12-05T15:17:25;12.18;;;5.30;;
45848;SDS011;31567;54.600;9.842;2022-12-05T15:25:42;8.80;;;4.57;;
45848;SDS011;31567;54.600;9.842;2022-12-05T15:32:59;8.68;;;4.30;;
45848;SDS011;31567;54.600;9.842;2022-12-05T15:36:42;9.35;;;4.80;;
45848;SDS011;31567;54.600;9.842;2022-12-05T15:40:25;7.88;;;4.28;;
45848;SDS011;31567;54.600;9.842;2022-12-05T15:44:04;7.53;;;3.78;;
45848;SDS011;31567;54.600;9.842;2022-12-05T15:47:45;7.90;;;3.45;;
45848;SDS011;31567;54.600;9.842;2022-12-05T15:51:34;8.50;;;3.67;;
45848;SDS011;31567;54.600;9.842;2022-12-05T15:55:26;7.75;;;3.92;;
45848;SDS011;31567;54.600;9.842;2022-12-05T15:59:12;6.65;;;3.70;;
45848;SDS011;31567;54.600;9.842;2022-12-05T16:06:47;8.68;;;4.00;;
45848;SDS011;31567;54.600;9.842;2022-12-05T16:10:28;7.70;;;4.28;;
45848;SDS011;31567;54.600;9.842;2022-12-05T16:14:10;8.95;;;4.05;;
45848;SDS011;31567;54.600;9.842;2022-12-05T16:17:52;9.68;;;4.53;;
45848;SDS011;31567;54.600;9.842;2022-12-05T16:21:34;7.97;;;3.97;;
45848;SDS011;31567;54.600;9.842;2022-12-05T16:25:17;11.98;;;4.90;;
45848;SDS011;31567;54.600;9.842;2022-12-05T16:29:02;6.57;;;3.83;;
45848;SDS011;31567;54.600;9.842;2022-12-05T16:32:42;10.18;;;4.47;;
45848;SDS011;31567;54.600;9.842;2022-12-05T16:36:23;8.73;;;4.30;;
45848;SDS011;31567;54.600;9.842;2022-12-05T16:40:03;9.60;;;4.28;;
45848;SDS011;31567;54.600;9.842;2022-12-05T16:43:43;9.48;;;4.32;;
45848;SDS011;31567;54.600;9.842;2022-12-05T16:47:24;8.70;;;4.10;;
45848;SDS011;31567;54.600;9.842;2022-12-05T16:51:24;8.77;;;4.07;;
45848;SDS011;31567;54.600;9.842;2022-12-05T16:55:05;10.65;;;5.25;;
45848;SDS011;31567;54.600;9.842;2022-12-05T16:58:49;10.02;;;4.50;;
45848;SDS011;31567;54.600;9.842;2022-12-05T17:02:28;11.10;;;4.75;;
45848;SDS011;31567;54.600;9.842;2022-12-05T17:06:08;10.27;;;4.60;;
45848;SDS011;31567;54.600;9.842;2022-12-05T17:09:48;9.88;;;4.72;;
45848;SDS011;31567;54.600;9.842;2022-12-05T17:13:27;13.25;;;5.45;;
45848;SDS011;31567;54.600;9.842;2022-12-05T17:17:11;11.52;;;5.55;;
45848;SDS011;31567;54.600;9.842;2022-12-05T17:20:53;15.10;;;5.47;;
45848;SDS011;31567;54.600;9.842;2022-12-05T17:24:34;10.85;;;5.72;;
45848;SDS011;31567;54.600;9.842;2022-12-05T17:28:14;12.82;;;5.75;;
45848;SDS011;31567;54.600;9.842;2022-12-05T17:31:54;9.45;;;5.00;;
45848;SDS011;31567;54.600;9.842;2022-12-05T17:35:33;10.77;;;4.85;;
45848;SDS011;31567;54.600;9.842;2022-12-05T17:39:14;13.00;;;5.55;;
45848;SDS011;31567;54.600;9.842;2022-12-05T17:42:53;10.93;;;5.07;;
45848;SDS011;31567;54.600;9.842;2022-12-05T17:46:33;12.82;;;5.40;;
45848;SDS011;31567;54.600;9.842;2022-12-05T17:50:14;8.80;;;4.32;;
45848;SDS011;31567;54.600;9.842;2022-12-05T17:53:59;9.32;;;4.50;;
45848;SDS011;31567;54.600;9.842;2022-12-05T17:57:39;9.05;;;4.82;;
45848;SDS011;31567;54.600;9.842;2022-12-05T18:01:19;9.80;;;3.97;;
45848;SDS011;31567;54.600;9.842;2022-12-05T18:04:59;11.05;;;4.80;;
45848;SDS011;31567;54.600;9.842;2022-12-05T18:08:38;11.20;;;4.80;;
45848;SDS011;31567;54.600;9.842;2022-12-05T18:12:20;10.52;;;4.70;;
45848;SDS011;31567;54.600;9.842;2022-12-05T18:15:59;9.68;;;4.68;;
45848;SDS011;31567;54.600;9.842;2022-12-05T18:19:39;8.73;;;4.50;;
45848;SDS011;31567;54.600;9.842;2022-12-05T18:23:19;9.60;;;5.10;;
45848;SDS011;31567;54.600;9.842;2022-12-05T18:26:58;8.57;;;4.20;;
45848;SDS011;31567;54.600;9.842;2022-12-05T18:30:38;10.02;;;4.18;;
45848;SDS011;31567;54.600;9.842;2022-12-05T18:34:17;8.77;;;4.07;;
45848;SDS011;31567;54.600;9.842;2022-12-05T18:37:57;5.75;;;4.15;;
45848;SDS011;31567;54.600;9.842;2022-12-05T18:41:37;5.65;;;3.33;;
45848;SDS011;31567;54.600;9.842;2022-12-05T18:45:16;5.53;;;3.58;;
45848;SDS011;31567;54.600;9.842;2022-12-05T18:48:56;4.80;;;3.03;;
45848;SDS011;31567;54.600;9.842;2022-12-05T18:52:35;5.05;;;3.10;;
45848;SDS011;31567;54.600;9.842;2022-12-05T18:56:16;4.65;;;3.08;;
45848;SDS011;31567;54.600;9.842;2022-12-05T18:59:59;5.38;;;2.97;;
45848;SDS011;31567;54.600;9.842;2022-12-05T19:03:39;4.85;;;2.95;;
45848;SDS011;31567;54.600;9.842;2022-12-05T19:07:19;5.43;;;2.92;;
45848;SDS011;31567;54.600;9.842;2022-12-05T19:11:02;3.60;;;3.00;;
45848;SDS011;31567;54.600;9.842;2022-12-05T19:14:42;5.38;;;3.45;;
45848;SDS011;31567;54.600;9.842;2022-12-05T19:18:22;6.88;;;3.30;;
45848;SDS011;31567;54.600;9.842;2022-12-05T19:22:01;5.65;;;3.38;;
45848;SDS011;31567;54.600;9.842;2022-12-05T19:25:41;4.53;;;3.65;;
45848;SDS011;31567;54.600;9.842;2022-12-05T19:29:21;5.15;;;4.32;;
45848;SDS011;31567;54.600;9.842;2022-12-05T19:33:01;5.70;;;4.30;;
45848;SDS011;31567;54.600;9.842;2022-12-05T19:36:42;6.72;;;4.55;;
45848;SDS011;31567;54.600;9.842;2022-12-05T19:40:23;6.35;;;4.65;;
45848;SDS011;31567;54.600;9.842;2022-12-05T19:44:03;7.43;;;5.00;;
45848;SDS011;31567;54.600;9.842;2022-12-05T19:47:43;7.28;;;5.10;;
45848;SDS011;31567;54.600;9.842;2022-12-05T19:51:22;6.75;;;5.00;;
45848;SDS011;31567;54.600;9.842;2022-12-05T19:55:02;8.65;;;6.03;;
45848;SDS011;31567;54.600;9.842;2022-12-05T19:58:42;7.28;;;4.85;;
45848;SDS011;31567;54.600;9.842;2022-12-05T20:02:23;10.23;;;5.57;;
45848;SDS011;31567;54.600;9.842;2022-12-05T20:06:03;9.05;;;5.55;;
45848;SDS011;31567;54.600;9.842;2022-12-05T20:09:43;7.78;;;5.72;;
45848;SDS011;31567;54.600;9.842;2022-12-05T20:13:23;7.70;;;5.45;;
45848;SDS011;31567;54.600;9.842;2022-12-05T20:17:02;7.00;;;5.63;;
45848;SDS011;31567;54.600;9.842;2022-12-05T20:20:43;6.72;;;4.53;;
45848;SDS011;31567;54.600;9.842;2022-12-05T20:24:22;9.65;;;5.60;;
45848;SDS011;31567;54.600;9.842;2022-12-05T20:28:02;6.80;;;5.28;;
45848;SDS011;31567;54.600;9.842;2022-12-05T20:31:43;7.88;;;5.70;;
45848;SDS011;31567;54.600;9.842;2022-12-05T20:35:23;9.90;;;5.60;;
45848;SDS011;31567;54.600;9.842;2022-12-05T20:39:04;9.90;;;6.10;;
45848;SDS011;31567;54.600;9.842;2022-12-05T20:42:50;9.15;;;5.43;;
45848;SDS011;31567;54.600;9.842;2022-12-05T20:46:30;8.50;;;6.25;;
45848;SDS011;31567;54.600;9.842;2022-12-05T20:50:10;8.52;;;6.13;;
45848;SDS011;31567;54.600;9.842;2022-12-05T20:53:50;7.07;;;5.90;;
45848;SDS011;31567;54.600;9.842;2022-12-05T20:57:30;7.45;;;6.32;;
45848;SDS011;31567;54.600;9.842;2022-12-05T21:01:12;10.77;;;6.85;;
45848;SDS011;31567;54.600;9.842;2022-12-05T21:04:52;11.85;;;7.82;;
45848;SDS011;31567;54.600;9.842;2022-12-05T21:08:31;9.85;;;6.90;;
45848;SDS011;31567;54.600;9.842;2022-12-05T21:12:11;8.82;;;6.90;;
45848;SDS011;31567;54.600;9.842;2022-12-05T21:15:50;9.73;;;6.63;;
45848;SDS011;31567;54.600;9.842;2022-12-05T21:19:30;8.00;;;6.97;;
45848;SDS011;31567;54.600;9.842;2022-12-05T21:23:10;7.80;;;6.88;;
45848;SDS011;31567;54.600;9.842;2022-12-05T21:26:50;6.80;;;6.15;;
45848;SDS011;31567;54.600;9.842;2022-12-05T21:30:30;6.28;;;5.68;;
45848;SDS011;31567;54.600;9.842;2022-12-05T21:34:16;7.38;;;6.28;;
45848;SDS011;31567;54.600;9.842;2022-12-05T21:37:59;8.03;;;5.73;;
45848;SDS011;31567;54.600;9.842;2022-12-05T21:41:39;7.53;;;6.53;;
45848;SDS011;31567;54.600;9.842;2022-12-05T21:45:18;6.65;;;5.55;;
45848;SDS011;31567;54.600;9.842;2022-12-05T21:48:58;10.48;;;5.13;;
45848;SDS011;31567;54.600;9.842;2022-12-05T21:52:38;6.13;;;5.53;;
45848;SDS011;31567;54.600;9.842;2022-12-05T21:56:19;6.30;;;5.70;;
45848;SDS011;31567;54.600;9.842;2022-12-05T22:00:06;8.15;;;6.13;;
45848;SDS011;31567;54.600;9.842;2022-12-05T22:03:49;8.48;;;5.85;;
45848;SDS011;31567;54.600;9.842;2022-12-05T22:07:33;8.63;;;6.18;;
45848;SDS011;31567;54.600;9.842;2022-12-05T22:11:14;6.82;;;5.63;;
45848;SDS011;31567;54.600;9.842;2022-12-05T22:14:55;6.05;;;5.28;;
45848;SDS011;31567;54.600;9.842;2022-12-05T22:18:34;7.32;;;5.40;;
45848;SDS011;31567;54.600;9.842;2022-12-05T22:22:14;7.53;;;6.13;;
45848;SDS011;31567;54.600;9.842;2022-12-05T22:25:55;6.28;;;5.38;;
45848;SDS011;31567;54.600;9.842;2022-12-05T22:30:01;6.55;;;4.90;;
45848;SDS011;31567;54.600;9.842;2022-12-05T22:33:41;6.25;;;4.65;;
45848;SDS011;31567;54.600;9.842;2022-12-05T22:37:21;7.00;;;5.18;;
45848;SDS011;31567;54.600;9.842;2022-12-05T22:41:01;5.57;;;4.15;;
45848;SDS011;31567;54.600;9.842;2022-12-05T22:44:43;7.35;;;5.40;;
45848;SDS011;31567;54.600;9.842;2022-12-05T22:48:23;5.93;;;4.60;;
45848;SDS011;31567;54.600;9.842;2022-12-05T22:52:04;6.13;;;4.68;;
45848;SDS011;31567;54.600;9.842;2022-12-05T22:55:43;8.27;;;4.65;;
45848;SDS011;31567;54.600;9.842;2022-12-05T22:59:23;7.50;;;3.90;;
45848;SDS011;31567;54.600;9.842;2022-12-05T23:03:03;7.07;;;4.97;;
45848;SDS011;31567;54.600;9.842;2022-12-05T23:06:43;6.90;;;5.00;;
45848;SDS011;31567;54.600;9.842;2022-12-05T23:10:22;6.65;;;5.30;;
45848;SDS011;31567;54.600;9.842;2022-12-05T23:14:02;6.13;;;4.68;;
45848;SDS011;31567;54.600;9.842;2022-12-05T23:17:45;5.93;;;5.05;;
45848;SDS011;31567;54.600;9.842;2022-12-05T23:25:12;4.22;;;3.83;;
45848;SDS011;31567;54.600;9.842;2022-12-05T23:28:52;4.70;;;3.08;;
45848;SDS011;31567;54.600;9.842;2022-12-05T23:32:32;3.95;;;3.30;;
45848;SDS011;31567;54.600;9.842;2022-12-05T23:36:11;4.03;;;3.17;;
45848;SDS011;31567;54.600;9.842;2022-12-05T23:39:51;4.15;;;3.55;;
45848;SDS011;31567;54.600;9.842;2022-12-05T23:43:31;4.15;;;3.65;;
45848;SDS011;31567;54.600;9.842;2022-12-05T23:47:12;4.38;;;3.70;;
45848;SDS011;31567;54.600;9.842;2022-12-05T23:51:14;4.40;;;3.90;;
45848;SDS011;31567;54.600;9.842;2022-12-05T23:55:01;7.38;;;4.85;;
45848;SDS011;31567;54.600;9.842;2022-12-05T23:58:41;4.30;;;3.67;;
